Impacts METAR Board INFO
IDs:

KSAN - San Diego Intl Arpt, CA, US

Updated at: 1746 UTC 25 Feb 2018
Potential Impact None Slight Moderate High
Time25/05Z 25/06Z 25/07Z 25/08Z 25/09Z 25/10Z 25/11Z 25/12Z 25/13Z 25/14Z 25/15Z 25/16Z 25/17Z
VIS10 10 10 10 10 10 10 10 10 10 10 10 10
CIG-- -- -- -- -- -- -- -- -- -- -- -- --
CoverCLRFEWCLRCLRCLRCLRCLRCLRCLRCLRCLRFEWCLR
FltCatVFRVFRVFRVFRVFRVFRVFRVFRVFRVFRVFRVFRVFR
WX--------------------------
WDir200070707080013000330360
WSpd4 0 0 3 3 4 3 0 4 0 0 3 5
WGst-- -- -- -- -- -- -- -- -- -- -- -- --
Raw hourly METARs
KSAN 250451Z 02004KT 10SM CLR 12/02 A3024 RMK AO2 SLP240 T01220022
KSAN 250551Z 00000KT 10SM FEW003 12/01 A3024 RMK AO2 SLP238 FU FEW003 T01170011 10156 20117 58002
KSAN 250651Z 00000KT 10SM CLR 11/M01 A3022 RMK AO2 SLP234 T01111006
KSAN 250751Z 07003KT 10SM CLR 11/M01 A3021 RMK AO2 SLP230 T01111011 401720067
KSAN 250851Z 07003KT 10SM CLR 10/M01 A3021 RMK AO2 SLP229 T01001006 56009
KSAN 250951Z 07004KT 10SM CLR 09/M01 A3021 RMK AO2 SLP229 T00941006
KSAN 251051Z 08003KT 10SM CLR 09/M01 A3020 RMK AO2 SLP226 T00941006
KSAN 251151Z 00000KT 10SM CLR 09/M01 A3020 RMK AO2 SLP226 T00891011 10122 20089 58003
KSAN 251251Z 13004KT 10SM CLR 08/M01 A3021 RMK AO2 SLP229 T00781011
KSAN 251351Z 00000KT 10SM CLR 08/M02 A3021 RMK AO2 SLP230 T00781022
KSAN 251451Z 00000KT 10SM CLR 08/M03 A3020 RMK AO2 SLP227 T00781028 50001
KSAN 251551Z 33003KT 10SM FEW020 09/M02 A3022 RMK AO2 SLP234 T00941022
KSAN 251651Z 36005KT 10SM CLR 13/M02 A3023 RMK AO2 SLP236 T01331022